Time;durP1;ratioP1;P1;durP2;ratioP2;P2;SDS_P1;SDS_P2;PMS_P1;PMS_P2;Temp;Humidity;BMP_temperature;BMP_pressure;BME280_temperature;BME280_humidity;BME280_pressure;Samples;Min_cycle;Max_cycle;Signal;HPM_P1;HPM_P2
2024/02/17 00:00:03;;;;;;;;;;;11.30;99.90;;;-146.41;100.00;57768.22;5021805;28;1367;-68
2024/02/17 00:02:30;;;;;;;;;;;11.40;99.90;;;-146.41;100.00;57768.22;5020590;28;1295;-68
2024/02/17 00:04:57;;;;;;;;;;;11.40;99.90;;;-146.41;100.00;57768.22;5023333;28;1359;-69
2024/02/17 00:07:24;;;;;;;;;;;11.40;99.90;;;-146.41;100.00;57768.22;5029142;28;1182;-69
2024/02/17 00:09:50;;;;;;;;;;;11.30;99.90;;;-146.41;100.00;57768.22;5024257;28;1441;-68
2024/02/17 00:12:17;;;;;;;;;;;11.30;99.90;;;-146.41;100.00;57768.22;5020166;28;1971;-68
2024/02/17 00:14:44;;;;;;;;;;;11.30;99.90;;;-146.41;100.00;57768.22;5023642;28;1253;-68
2024/02/17 00:17:11;;;;;;;;;;;11.30;99.90;;;-146.41;100.00;57768.22;5022584;28;1254;-68
2024/02/17 00:19:38;;;;;;;;;;;11.30;99.90;;;-146.41;100.00;57768.22;5021683;28;1215;-68
2024/02/17 00:22:05;;;;;;;;;;;11.20;99.90;;;-146.41;100.00;57768.22;5022643;28;1199;-68
2024/02/17 00:24:32;;;;;;;;;;;11.20;99.90;;;-146.41;100.00;57768.22;5021395;28;1441;-69
2024/02/17 00:26:59;;;;;;;;;;;11.20;99.90;;;-146.41;100.00;57768.22;5019889;28;1717;-68
2024/02/17 00:29:26;;;;;;;;;;;11.20;99.90;;;-146.41;100.00;57768.22;5019273;28;1148;-68
2024/02/17 00:31:52;;;;;;;;;;;11.20;99.90;;;-146.41;100.00;57768.22;5019471;28;1991;-68
2024/02/17 00:34:19;;;;;;;;;;;11.10;99.90;;;-146.41;100.00;57768.22;5018351;28;1352;-68
2024/02/17 00:36:46;;;;;;;;;;;11.10;99.90;;;-146.41;100.00;57768.22;5016152;28;1205;-69
2024/02/17 00:39:13;;;;;;;;;;;11.10;99.90;;;-146.41;100.00;57768.22;5018617;28;1504;-69
2024/02/17 00:41:42;;;;;;;;;;;11.10;99.90;;;-146.41;100.00;57768.22;5015515;28;1612;-68
2024/02/17 00:44:09;;;;;;;;;;;11.10;99.90;;;-146.41;100.00;57768.22;5014637;28;1388;-68
2024/02/17 00:46:35;;;;;;;;;;;11.10;99.90;;;-146.41;100.00;57768.22;5016751;28;1201;-68
2024/02/17 00:49:02;;;;;;;;;;;11.10;99.90;;;-146.41;100.00;57768.22;5016873;28;1241;-69
2024/02/17 00:51:29;;;;;;;;;;;11.00;99.90;;;-146.41;100.00;57768.22;5017357;28;1902;-67
2024/02/17 00:53:56;;;;;;;;;;;11.00;99.90;;;-146.41;100.00;57768.22;5017021;28;1251;-68
2024/02/17 00:56:23;;;;;;;;;;;11.00;99.90;;;-146.41;100.00;57768.22;5016907;28;1230;-68
2024/02/17 00:58:50;;;;;;;;;;;11.00;99.90;;;-146.41;100.00;57768.22;5017139;28;1495;-68
2024/02/17 01:01:17;;;;;;;;;;;10.90;99.90;;;-146.41;100.00;57768.22;5020450;28;1357;-69
2024/02/17 01:03:55;;;;;;;;;;;10.90;99.90;;;-146.41;100.00;57768.22;5015519;28;1058;-68
2024/02/17 01:06:23;;;;;;;;;;;10.90;99.90;;;-146.41;100.00;57768.22;5017084;28;1237;-69
2024/02/17 01:08:51;;;;;;;;;;;10.90;99.90;;;-146.41;100.00;57768.22;5015984;28;1426;-68
2024/02/17 01:11:18;;;;;;;;;;;10.90;99.90;;;-146.41;100.00;57768.22;5015389;28;1902;-68
2024/02/17 01:13:46;;;;;;;;;;;10.90;99.90;;;-146.41;100.00;57768.22;5015665;28;1374;-68
2024/02/17 01:16:13;;;;;;;;;;;10.90;99.90;;;-146.41;100.00;57768.22;5018209;28;1423;-68
2024/02/17 01:18:40;;;;;;;;;;;11.00;99.90;;;-146.41;100.00;57768.22;5019612;28;1187;-67
2024/02/17 01:21:07;;;;;;;;;;;11.00;99.90;;;-146.41;100.00;57768.22;5017138;28;1218;-68
2024/02/17 01:23:34;;;;;;;;;;;10.90;99.90;;;-146.41;100.00;57768.22;5016574;28;1233;-68
2024/02/17 01:26:01;;;;;;;;;;;10.80;99.90;;;-146.41;100.00;57768.22;5020222;28;1303;-68
2024/02/17 01:28:28;;;;;;;;;;;10.70;99.90;;;-146.41;100.00;57768.22;5018013;28;1262;-68
2024/02/17 01:30:55;;;;;;;;;;;10.70;99.90;;;-146.41;100.00;57768.22;5020613;28;1914;-68
2024/02/17 01:33:22;;;;;;;;;;;10.60;99.90;;;-146.41;100.00;57768.22;5015415;28;1227;-69
2024/02/17 01:35:49;;;;;;;;;;;10.40;99.90;;;-146.41;100.00;57768.22;5017892;28;1336;-69
2024/02/17 01:38:16;;;;;;;;;;;10.40;99.90;;;-146.41;100.00;57768.22;5016745;28;1418;-68
2024/02/17 01:40:42;;;;;;;;;;;10.30;99.90;;;-146.41;100.00;57768.22;5019713;28;1213;-68
2024/02/17 01:43:10;;;;;;;;;;;10.20;99.90;;;-146.41;100.00;57768.22;5019582;28;1046;-68
2024/02/17 01:45:36;;;;;;;;;;;10.00;99.90;;;-146.41;100.00;57768.22;5017551;28;1259;-68
2024/02/17 01:48:04;;;;;;;;;;;9.90;99.90;;;-146.41;100.00;57768.22;5024633;28;1125;-68
2024/02/17 01:50:31;;;;;;;;;;;9.80;99.90;;;-146.41;100.00;57768.22;5024501;28;1149;-68
2024/02/17 01:52:58;;;;;;;;;;;9.70;99.90;;;-146.41;100.00;57768.22;5022758;28;1964;-68
2024/02/17 01:55:26;;;;;;;;;;;9.50;99.90;;;-146.41;100.00;57768.22;5021158;28;1373;-68
2024/02/17 01:57:53;;;;;;;;;;;9.40;99.90;;;-146.41;100.00;57768.22;5010815;28;1099;-68
2024/02/17 02:00:21;;;;;;;;;;;9.20;99.90;;;-146.41;100.00;57768.22;5021295;28;1169;-68
2024/02/17 02:02:49;;;;;;;;;;;9.10;99.90;;;-146.41;100.00;57768.22;5020870;28;1208;-68
2024/02/17 02:05:17;;;;;;;;;;;9.10;99.90;;;-146.41;100.00;57768.22;5021064;28;1453;-68
2024/02/17 02:07:44;;;;;;;;;;;9.00;99.90;;;-146.41;100.00;57768.22;5020693;28;2041;-68
2024/02/17 02:10:11;;;;;;;;;;;9.00;99.90;;;-146.41;100.00;57768.22;5018209;28;1322;-68
2024/02/17 02:12:37;;;;;;;;;;;8.80;99.90;;;-146.41;100.00;57768.22;5022114;28;1883;-68
2024/02/17 02:15:06;;;;;;;;;;;8.80;99.90;;;-146.41;100.00;57768.22;5019740;28;1264;-68
2024/02/17 02:17:33;;;;;;;;;;;8.80;99.90;;;-146.41;100.00;57768.22;5023168;28;1077;-68
2024/02/17 02:20:00;;;;;;;;;;;8.70;99.90;;;-146.41;100.00;57768.22;5016158;28;1073;-68
2024/02/17 02:22:27;;;;;;;;;;;8.60;99.90;;;-146.41;100.00;57768.22;5020015;28;1525;-69
2024/02/17 02:24:57;;;;;;;;;;;8.50;99.90;;;-146.41;100.00;57768.22;5018737;28;1382;-68
2024/02/17 02:27:27;;;;;;;;;;;8.40;99.90;;;-146.41;100.00;57768.22;5019650;28;1021;-69
2024/02/17 02:29:56;;;;;;;;;;;8.30;99.90;;;-146.41;100.00;57768.22;5019850;28;1658;-69
2024/02/17 02:32:26;;;;;;;;;;;8.30;99.90;;;-146.41;100.00;57768.22;5016669;28;1902;-68
2024/02/17 02:34:53;;;;;;;;;;;8.20;99.90;;;-146.41;100.00;57768.22;5022174;28;1288;-69
2024/02/17 02:37:23;;;;;;;;;;;8.20;99.90;;;-146.41;100.00;57768.22;5018660;28;1461;-68
2024/02/17 02:39:49;;;;;;;;;;;8.20;99.90;;;-146.41;100.00;57768.22;5018714;28;1058;-68
2024/02/17 02:42:16;;;;;;;;;;;8.20;99.90;;;-146.41;100.00;57768.22;5024095;28;1536;-68
2024/02/17 02:44:43;;;;;;;;;;;8.10;99.90;;;-146.41;100.00;57768.22;5020625;28;1257;-68
2024/02/17 02:47:10;;;;;;;;;;;8.10;99.90;;;-146.41;100.00;57768.22;5018892;28;1386;-69
2024/02/17 02:49:37;;;;;;;;;;;8.00;99.90;;;-146.41;100.00;57768.22;5024519;28;1247;-68
2024/02/17 02:52:04;;;;;;;;;;;8.00;99.90;;;-146.41;100.00;57768.22;5019342;28;1916;-68
2024/02/17 02:54:31;;;;;;;;;;;8.00;99.90;;;-146.41;100.00;57768.22;5018958;28;1446;-69
2024/02/17 02:56:57;;;;;;;;;;;7.90;99.90;;;-146.41;100.00;57768.22;5019106;28;1114;-68
2024/02/17 02:59:24;;;;;;;;;;;8.00;99.90;;;-146.41;100.00;57768.22;5005874;28;1208;-69
2024/02/17 03:01:51;;;;;;;;;;;8.00;99.90;;;-146.41;100.00;57768.22;5016669;28;1342;-68
2024/02/17 03:04:18;;;;;;;;;;;7.80;99.90;;;-146.41;100.00;57768.22;5018709;28;1362;-68
2024/02/17 03:06:45;;;;;;;;;;;7.70;99.90;;;-146.41;100.00;57768.22;5022865;28;1125;-68
2024/02/17 03:09:13;;;;;;;;;;;7.60;99.90;;;-146.41;100.00;57768.22;5022164;28;1079;-69
2024/02/17 03:11:42;;;;;;;;;;;7.60;99.90;;;-146.41;100.00;57768.22;5020171;28;1906;-69
2024/02/17 03:14:09;;;;;;;;;;;7.60;99.90;;;-146.41;100.00;57768.22;5019611;28;1422;-68
2024/02/17 03:16:39;;;;;;;;;;;7.60;99.90;;;-146.41;100.00;57768.22;5020642;28;1111;-68
2024/02/17 03:19:06;;;;;;;;;;;7.60;99.90;;;-146.41;100.00;57768.22;5019962;28;1425;-68
2024/02/17 03:21:34;;;;;;;;;;;7.60;99.90;;;-146.41;100.00;57768.22;5018321;28;1392;-69
2024/02/17 03:24:03;;;;;;;;;;;7.60;99.90;;;-146.41;100.00;57768.22;5018843;28;1327;-69
2024/02/17 03:26:30;;;;;;;;;;;7.50;99.90;;;-146.41;100.00;57768.22;5020863;28;1041;-67
2024/02/17 03:28:57;;;;;;;;;;;7.60;99.90;;;-146.41;100.00;57768.22;5015440;28;1094;-69
2024/02/17 03:31:24;;;;;;;;;;;7.50;99.90;;;-146.41;100.00;57768.22;5018979;28;1906;-68
2024/02/17 03:33:51;;;;;;;;;;;7.50;99.90;;;-146.41;100.00;57768.22;5021879;28;1604;-68
2024/02/17 03:36:19;;;;;;;;;;;7.50;99.90;;;-146.41;100.00;57768.22;5017639;28;1380;-68
2024/02/17 03:38:47;;;;;;;;;;;7.40;99.90;;;-146.41;100.00;57768.22;5019380;28;1072;-68
2024/02/17 03:41:15;;;;;;;;;;;7.40;99.90;;;-146.41;100.00;57768.22;5005650;28;1492;-68
2024/02/17 03:43:42;;;;;;;;;;;7.40;99.90;;;-146.41;100.00;57768.22;5016121;28;990;-68
2024/02/17 03:46:09;;;;;;;;;;;7.30;99.90;;;-146.41;100.00;57768.22;5015731;28;1596;-68
2024/02/17 03:48:37;;;;;;;;;;;7.20;99.90;;;-146.41;100.00;57768.22;5016787;28;1380;-69
2024/02/17 03:51:04;;;;;;;;;;;7.20;99.90;;;-146.41;100.00;57768.22;5016403;28;1362;-68
2024/02/17 03:53:31;;;;;;;;;;;7.10;99.90;;;-146.41;100.00;57768.22;5017807;28;1980;-68
2024/02/17 03:55:58;;;;;;;;;;;7.10;99.90;;;-146.41;100.00;57768.22;5017475;28;1398;-68
2024/02/17 03:58:25;;;;;;;;;;;6.90;99.90;;;-146.41;100.00;57768.22;5019256;28;1185;-68
2024/02/17 04:00:52;;;;;;;;;;;6.90;99.90;;;-146.41;100.00;57768.22;5017601;28;1015;-68
2024/02/17 04:03:19;;;;;;;;;;;6.90;99.90;;;-146.41;100.00;57768.22;5015944;28;1405;-68
2024/02/17 04:05:46;;;;;;;;;;;6.90;99.90;;;-146.41;100.00;57768.22;5017021;28;1315;-68
2024/02/17 04:08:13;;;;;;;;;;;6.90;99.90;;;-146.41;100.00;57768.22;5015331;28;1140;-68
2024/02/17 04:10:40;;;;;;;;;;;6.90;99.90;;;-146.41;100.00;57768.22;5015833;28;1037;-68
2024/02/17 04:13:07;;;;;;;;;;;6.80;99.90;;;-146.41;100.00;57768.22;5017028;28;1999;-68
2024/02/17 04:15:34;;;;;;;;;;;6.80;99.90;;;-146.41;100.00;57768.22;5017600;28;1403;-68
2024/02/17 04:18:01;;;;;;;;;;;6.80;99.90;;;-146.41;100.00;57768.22;5016462;28;1409;-68
2024/02/17 04:20:28;;;;;;;;;;;6.70;99.90;;;-146.41;100.00;57768.22;5016735;28;1042;-68
2024/02/17 04:22:56;;;;;;;;;;;6.70;99.90;;;-146.41;100.00;57768.22;5017316;28;1294;-67
2024/02/17 04:25:22;;;;;;;;;;;6.60;99.90;;;-146.41;100.00;57768.22;5019644;28;1634;-68
2024/02/17 04:27:49;;;;;;;;;;;6.60;99.90;;;-146.41;100.00;57768.22;5023941;28;1119;-68
2024/02/17 04:30:16;;;;;;;;;;;6.50;99.90;;;-146.41;100.00;57768.22;5018381;28;1089;-68
2024/02/17 04:32:43;;;;;;;;;;;6.50;99.90;;;-146.41;100.00;57768.22;5022453;28;1902;-69
2024/02/17 04:35:10;;;;;;;;;;;6.50;99.90;;;-146.41;100.00;57768.22;5016003;28;1665;-68
2024/02/17 04:37:37;;;;;;;;;;;6.50;99.90;;;-146.41;100.00;57768.22;5014709;28;1151;-68
2024/02/17 04:40:04;;;;;;;;;;;6.50;99.90;;;-146.41;100.00;57768.22;5020625;28;1041;-69
2024/02/17 04:42:31;;;;;;;;;;;6.40;99.90;;;-146.41;100.00;57768.22;5020362;28;968;-68
2024/02/17 04:44:58;;;;;;;;;;;6.30;99.90;;;-146.41;100.00;57768.22;5013718;28;1395;-69
2024/02/17 04:47:24;;;;;;;;;;;6.30;99.90;;;-146.41;100.00;57768.22;5017075;28;1338;-68
2024/02/17 04:49:51;;;;;;;;;;;6.30;99.90;;;-146.41;100.00;57768.22;5022349;28;1059;-68
2024/02/17 04:52:18;;;;;;;;;;;6.30;99.90;;;-146.41;100.00;57768.22;5020308;28;1997;-68
2024/02/17 04:54:45;;;;;;;;;;;6.30;99.90;;;-146.41;100.00;57768.22;5017068;28;1351;-67
2024/02/17 04:57:12;;;;;;;;;;;6.30;99.90;;;-146.41;100.00;57768.22;5020536;28;1029;-68
2024/02/17 04:59:39;;;;;;;;;;;6.30;99.90;;;-146.41;100.00;57768.22;5016278;28;1307;-68
2024/02/17 05:02:05;;;;;;;;;;;6.30;99.90;;;-146.41;100.00;57768.22;5015359;28;1472;-68
2024/02/17 05:04:32;;;;;;;;;;;6.20;99.90;;;-146.41;100.00;57768.22;5020465;28;1384;-68
2024/02/17 05:06:59;;;;;;;;;;;6.20;99.90;;;-146.41;100.00;57768.22;5019457;28;1185;-68
2024/02/17 05:09:26;;;;;;;;;;;6.20;99.90;;;-146.41;100.00;57768.22;5019215;28;1110;-68
2024/02/17 05:11:55;;;;;;;;;;;6.20;99.90;;;-146.41;100.00;57768.22;5019483;28;1915;-68
2024/02/17 05:14:23;;;;;;;;;;;6.10;99.90;;;-146.41;100.00;57768.22;5018559;28;1339;-68
2024/02/17 05:16:49;;;;;;;;;;;6.00;99.90;;;-146.41;100.00;57768.22;5018980;28;1471;-68
2024/02/17 05:19:16;;;;;;;;;;;6.00;99.90;;;-146.41;100.00;57768.22;5021501;28;1075;-68
2024/02/17 05:21:43;;;;;;;;;;;6.00;99.90;;;-146.41;100.00;57768.22;5019554;28;1324;-68
2024/02/17 05:24:11;;;;;;;;;;;6.00;99.90;;;-146.41;100.00;57768.22;5022293;28;1396;-68
2024/02/17 05:26:39;;;;;;;;;;;5.90;99.90;;;-146.41;100.00;57768.22;5022811;28;1161;-68
2024/02/17 05:29:06;;;;;;;;;;;5.90;99.90;;;-146.41;100.00;57768.22;5021082;28;1138;-68
2024/02/17 05:31:35;;;;;;;;;;;5.90;99.90;;;-146.41;100.00;57768.22;5023006;28;1403;-68
2024/02/17 05:34:02;;;;;;;;;;;6.00;99.90;;;-146.41;100.00;57768.22;5021213;28;1910;-68
2024/02/17 05:36:30;;;;;;;;;;;6.00;99.90;;;-146.41;100.00;57768.22;5023366;28;1148;-68
2024/02/17 05:38:57;;;;;;;;;;;5.90;99.90;;;-146.41;100.00;57768.22;5020664;28;1391;-68
2024/02/17 05:41:24;;;;;;;;;;;5.70;99.90;;;-146.41;100.00;57768.22;5024781;28;1083;-68
2024/02/17 05:43:52;;;;;;;;;;;5.70;99.90;;;-146.41;100.00;57768.22;5020888;28;1214;-69
2024/02/17 05:46:19;;;;;;;;;;;5.70;99.90;;;-146.41;100.00;57768.22;5021617;28;1407;-68
2024/02/17 05:48:46;;;;;;;;;;;5.60;99.90;;;-146.41;100.00;57768.22;5023997;28;1144;-68
2024/02/17 05:51:14;;;;;;;;;;;5.50;99.90;;;-146.41;100.00;57768.22;5022972;28;1434;-68
2024/02/17 05:53:41;;;;;;;;;;;5.50;99.90;;;-146.41;100.00;57768.22;5018239;28;1971;-68
2024/02/17 05:56:08;;;;;;;;;;;5.50;99.90;;;-146.41;100.00;57768.22;5018101;28;1367;-68
2024/02/17 05:58:36;;;;;;;;;;;5.50;99.90;;;-146.41;100.00;57768.22;5023398;28;1485;-69
2024/02/17 06:01:03;;;;;;;;;;;5.40;99.90;;;-146.41;100.00;57768.22;5023189;28;2019;-68
2024/02/17 06:03:33;;;;;;;;;;;5.40;99.90;;;-146.41;100.00;57768.22;5019527;28;1103;-68
2024/02/17 06:06:00;;;;;;;;;;;5.40;99.90;;;-146.41;100.00;57768.22;5023474;28;1434;-68
2024/02/17 06:08:27;;;;;;;;;;;5.40;99.90;;;-146.41;100.00;57768.22;5022006;28;1008;-68
2024/02/17 06:10:56;;;;;;;;;;;5.50;99.90;;;-146.41;100.00;57768.22;5022197;28;1338;-67
2024/02/17 06:13:24;;;;;;;;;;;5.50;99.90;;;-146.41;100.00;57768.22;5021774;28;1931;-68
2024/02/17 06:15:51;;;;;;;;;;;5.50;99.90;;;-146.41;100.00;57768.22;5018290;28;1424;-68
2024/02/17 06:21:22;;;;;;;;;;;5.30;99.90;;;-146.41;100.00;57768.22;4981866;28;1472;-69
2024/02/17 06:23:51;;;;;;;;;;;5.30;99.90;;;-146.41;100.00;57768.22;5013293;28;1484;-68
2024/02/17 06:26:22;;;;;;;;;;;5.20;99.90;;;-146.41;100.00;57768.22;5018798;28;1504;-68
2024/02/17 06:28:49;;;;;;;;;;;5.10;99.90;;;-146.41;100.00;57768.22;5018780;28;1523;-69
2024/02/17 06:31:16;;;;;;;;;;;5.10;99.90;;;-146.41;100.00;57768.22;5017695;28;1066;-68
2024/02/17 06:33:42;;;;;;;;;;;5.10;99.90;;;-146.41;100.00;57768.22;5022502;28;1910;-68
2024/02/17 06:36:10;;;;;;;;;;;5.10;99.90;;;-146.41;100.00;57768.22;5020876;28;1383;-68
2024/02/17 06:38:37;;;;;;;;;;;5.00;99.90;;;-146.41;100.00;57768.22;5021828;28;1327;-68
2024/02/17 06:41:04;;;;;;;;;;;5.00;99.90;;;-146.41;100.00;57768.22;5021621;28;1185;-68
2024/02/17 06:43:32;;;;;;;;;;;5.00;99.90;;;-146.41;100.00;57768.22;5022076;28;1452;-68
2024/02/17 06:45:59;;;;;;;;;;;4.90;99.90;;;-146.41;100.00;57768.22;5020193;28;1359;-68
2024/02/17 06:48:27;;;;;;;;;;;5.00;99.90;;;-146.41;100.00;57768.22;5019475;28;1086;-67
2024/02/17 06:50:54;;;;;;;;;;;4.90;99.90;;;-146.41;100.00;57768.22;5020665;28;1075;-68
2024/02/17 06:53:21;;;;;;;;;;;5.00;99.90;;;-146.41;100.00;57768.22;5008126;28;1894;-68
2024/02/17 06:55:48;;;;;;;;;;;5.00;99.90;;;-146.41;100.00;57768.22;5019864;28;1289;-68
2024/02/17 06:58:15;;;;;;;;;;;5.00;99.90;;;-146.41;100.00;57768.22;5022524;28;1143;-68
2024/02/17 07:00:42;;;;;;;;;;;5.10;99.90;;;-146.41;100.00;57768.22;5019627;28;1411;-68
2024/02/17 07:03:09;;;;;;;;;;;5.00;99.90;;;-146.41;100.00;57768.22;5016936;28;1358;-68
2024/02/17 07:05:37;;;;;;;;;;;5.00;99.90;;;-146.41;100.00;57768.22;5017861;28;1268;-68
2024/02/17 07:08:04;;;;;;;;;;;5.00;99.90;;;-146.41;100.00;57768.22;5020465;28;1237;-68
2024/02/17 07:10:31;;;;;;;;;;;4.90;99.90;;;-146.41;100.00;57768.22;5019915;28;1544;-68
2024/02/17 07:12:58;;;;;;;;;;;4.90;99.90;;;-146.41;100.00;57768.22;5024119;28;1906;-68
2024/02/17 07:15:25;;;;;;;;;;;4.80;99.90;;;-146.41;100.00;57768.22;5021043;28;1392;-68
2024/02/17 07:17:51;;;;;;;;;;;4.80;99.90;;;-146.41;100.00;57768.22;5019041;28;1382;-68
2024/02/17 07:20:18;;;;;;;;;;;4.80;99.90;;;-146.41;100.00;57768.22;5017770;28;1108;-67
2024/02/17 07:22:46;;;;;;;;;;;4.70;99.90;;;-146.41;100.00;57768.22;5021207;28;1051;-68
2024/02/17 07:25:12;;;;;;;;;;;4.70;99.90;;;-146.41;100.00;57768.22;5020311;28;1304;-68
2024/02/17 07:27:39;;;;;;;;;;;4.70;99.90;;;-146.41;100.00;57768.22;5019383;28;1101;-69
2024/02/17 07:30:06;;;;;;;;;;;4.80;99.90;;;-146.41;100.00;57768.22;5019713;28;1458;-68
2024/02/17 07:32:33;;;;;;;;;;;4.80;99.90;;;-146.41;100.00;57768.22;5020808;28;1989;-68
2024/02/17 07:35:01;;;;;;;;;;;4.90;99.90;;;-146.41;100.00;57768.22;5015881;28;1288;-68
2024/02/17 07:37:28;;;;;;;;;;;4.80;99.90;;;-146.41;100.00;57768.22;5019558;28;1099;-68
2024/02/17 07:39:55;;;;;;;;;;;4.90;99.90;;;-146.41;100.00;57768.22;5017394;28;1101;-68
2024/02/17 07:42:22;;;;;;;;;;;5.00;99.90;;;-146.41;100.00;57768.22;5017907;28;1342;-68
2024/02/17 07:44:49;;;;;;;;;;;5.00;99.90;;;-146.41;100.00;57768.22;5017221;28;1327;-68
2024/02/17 07:47:17;;;;;;;;;;;5.00;99.90;;;-146.41;100.00;57768.22;5019534;28;1693;-68
2024/02/17 07:49:44;;;;;;;;;;;5.00;99.90;;;-146.41;100.00;57768.22;5020020;28;1106;-69
2024/02/17 07:52:11;;;;;;;;;;;5.00;99.90;;;-146.41;100.00;57768.22;5021269;28;1184;-68
2024/02/17 07:54:38;;;;;;;;;;;5.10;99.90;;;-146.41;100.00;57768.22;5018207;28;1886;-68
2024/02/17 07:57:05;;;;;;;;;;;5.20;99.90;;;-146.41;100.00;57768.22;5018603;28;1463;-69
2024/02/17 07:59:32;;;;;;;;;;;5.40;99.90;;;-146.41;100.00;57768.22;5017780;28;1407;-69
2024/02/17 08:01:59;;;;;;;;;;;5.40;99.90;;;-146.41;100.00;57768.22;5016258;28;1041;-70
2024/02/17 08:04:26;;;;;;;;;;;5.60;99.90;;;-146.41;100.00;57768.22;5022292;28;1304;-67
2024/02/17 08:06:53;;;;;;;;;;;6.10;99.90;;;-146.41;100.00;57768.22;5016398;28;1014;-68
2024/02/17 08:09:20;;;;;;;;;;;6.70;99.90;;;-146.41;100.00;57768.22;5019181;28;1109;-67
2024/02/17 08:11:54;;;;;;;;;;;6.90;99.90;;;-146.41;100.00;57768.22;5017290;28;1485;-68
2024/02/17 08:14:21;;;;;;;;;;;7.00;99.90;;;-146.41;100.00;57768.22;5018277;28;2009;-68
2024/02/17 08:16:48;;;;;;;;;;;7.30;99.90;;;-146.41;100.00;57768.22;5018178;28;1115;-68
2024/02/17 08:19:15;;;;;;;;;;;7.80;99.90;;;-146.41;100.00;57768.22;5016255;28;1042;-68
2024/02/17 08:21:42;;;;;;;;;;;8.80;99.90;;;-146.41;100.00;57768.22;5022395;28;1519;-68
2024/02/17 08:24:09;;;;;;;;;;;9.60;99.90;;;-146.41;100.00;57768.22;5019348;28;1355;-68
2024/02/17 08:26:36;;;;;;;;;;;10.00;99.90;;;-146.41;100.00;57768.22;5018999;28;1346;-67
2024/02/17 08:29:02;;;;;;;;;;;10.00;99.90;;;-146.41;100.00;57768.22;5015854;28;1095;-68
2024/02/17 08:31:29;;;;;;;;;;;9.40;99.90;;;-146.41;100.00;57768.22;5018956;28;1048;-68
2024/02/17 08:33:56;;;;;;;;;;;9.00;99.90;;;-146.41;100.00;57768.22;5017809;28;2012;-68
2024/02/17 08:36:23;;;;;;;;;;;8.60;99.90;;;-146.41;100.00;57768.22;5019544;28;1438;-67
2024/02/17 08:38:50;;;;;;;;;;;8.10;99.90;;;-146.41;100.00;57768.22;5017762;28;1055;-68
2024/02/17 08:41:21;;;;;;;;;;;7.90;99.90;;;-146.41;100.00;57768.22;5002827;28;1158;-68
2024/02/17 08:43:48;;;;;;;;;;;7.70;99.90;;;-146.41;100.00;57768.22;5018889;28;1481;-68
2024/02/17 08:46:16;;;;;;;;;;;7.40;99.90;;;-146.41;100.00;57768.22;5018476;28;1403;-68
2024/02/17 08:48:42;;;;;;;;;;;7.10;99.90;;;-146.41;100.00;57768.22;5017685;28;1220;-68
2024/02/17 08:51:09;;;;;;;;;;;6.90;99.90;;;-146.41;100.00;57768.22;5018236;28;1025;-68
2024/02/17 08:53:37;;;;;;;;;;;6.70;99.90;;;-146.41;100.00;57768.22;5023045;28;2000;-69
2024/02/17 08:56:04;;;;;;;;;;;6.70;99.90;;;-146.41;100.00;57768.22;5022597;28;1331;-70
2024/02/17 08:58:31;;;;;;;;;;;6.60;99.90;;;-146.41;100.00;57768.22;5021600;28;1323;-69
2024/02/17 09:00:58;;;;;;;;;;;6.80;99.90;;;-146.41;100.00;57768.22;5022033;28;1145;-70
2024/02/17 09:03:25;;;;;;;;;;;6.90;99.90;;;-146.41;100.00;57768.22;5021197;28;1149;-70
2024/02/17 09:05:52;;;;;;;;;;;7.20;99.90;;;-146.41;100.00;57768.22;5021893;28;1276;-70
2024/02/17 09:08:19;;;;;;;;;;;7.40;99.90;;;-146.41;100.00;57768.22;5022009;28;1062;-69
2024/02/17 09:10:46;;;;;;;;;;;7.30;99.90;;;-146.41;100.00;57768.22;5022726;28;1469;-70
2024/02/17 09:13:12;;;;;;;;;;;7.30;99.90;;;-146.41;100.00;57768.22;5019516;28;2513;-72
2024/02/17 09:15:39;;;;;;;;;;;7.20;99.90;;;-146.41;100.00;57768.22;5022025;28;1452;-70
2024/02/17 09:18:06;;;;;;;;;;;7.20;99.90;;;-146.41;100.00;57768.22;5021197;28;1080;-67
2024/02/17 09:20:33;;;;;;;;;;;7.20;99.90;;;-146.41;100.00;57768.22;5021740;28;1060;-70
2024/02/17 09:23:00;;;;;;;;;;;7.40;99.90;;;-146.41;100.00;57768.22;5022180;28;1268;-70
2024/02/17 09:25:27;;;;;;;;;;;7.50;99.90;;;-146.41;100.00;57768.22;5024876;28;1264;-70
2024/02/17 09:27:54;;;;;;;;;;;7.70;99.90;;;-146.41;100.00;57768.22;5022459;28;1398;-67
2024/02/17 09:30:21;;;;;;;;;;;7.70;99.90;;;-146.41;100.00;57768.22;5026246;28;2038;-69
2024/02/17 09:32:48;;;;;;;;;;;7.80;99.90;;;-146.41;100.00;57768.22;5021403;28;1437;-70
2024/02/17 09:35:17;;;;;;;;;;;7.70;99.90;;;-146.41;100.00;57768.22;5023146;28;1902;-67
2024/02/17 09:37:44;;;;;;;;;;;7.70;99.90;;;-146.41;100.00;57768.22;5022238;28;1102;-70
2024/02/17 09:40:14;;;;;;;;;;;7.50;99.90;;;-146.41;100.00;57768.22;5022873;28;1217;-70
2024/02/17 09:42:41;;;;;;;;;;;7.60;99.90;;;-146.41;100.00;57768.22;5022032;28;1338;-70
2024/02/17 09:45:08;;;;;;;;;;;7.80;99.90;;;-146.41;100.00;57768.22;5020744;28;1297;-70
2024/02/17 09:47:35;;;;;;;;;;;7.90;99.90;;;-146.41;100.00;57768.22;5022486;28;1143;-70
2024/02/17 09:50:03;;;;;;;;;;;8.10;99.90;;;-146.41;100.00;57768.22;5020310;28;1153;-70
2024/02/17 09:52:30;;;;;;;;;;;8.10;99.90;;;-146.41;100.00;57768.22;5019401;28;1173;-70
2024/02/17 09:54:58;;;;;;;;;;;8.20;99.90;;;-146.41;100.00;57768.22;5023967;28;2356;-70
2024/02/17 09:57:25;;;;;;;;;;;8.20;99.90;;;-146.41;100.00;57768.22;5019394;28;1422;-70
2024/02/17 10:00:06;;;;;;;;;;;8.00;99.90;;;-146.41;100.00;57768.22;5018451;28;1370;-68
2024/02/17 10:02:34;;;;;;;;;;;7.90;99.90;;;-146.41;100.00;57768.22;5017435;28;1352;-70
2024/02/17 10:05:01;;;;;;;;;;;7.90;99.90;;;-146.41;100.00;57768.22;5021736;28;1372;-70
2024/02/17 10:07:29;;;;;;;;;;;8.10;99.90;;;-146.41;100.00;57768.22;5020743;28;1082;-70
2024/02/17 10:09:56;;;;;;;;;;;8.20;99.90;;;-146.41;100.00;57768.22;5022799;28;1244;-70
2024/02/17 10:12:23;;;;;;;;;;;8.30;99.90;;;-146.41;100.00;57768.22;5022766;28;1468;-68
2024/02/17 10:14:53;;;;;;;;;;;8.50;99.90;;;-146.41;100.00;57768.22;5020663;28;1977;-70
2024/02/17 10:17:22;;;;;;;;;;;8.40;99.90;;;-146.41;100.00;57768.22;5019959;28;1645;-70
2024/02/17 10:19:54;;;;;;;;;;;8.50;99.90;;;-146.41;100.00;57768.22;5019454;28;1638;-70
2024/02/17 10:22:21;;;;;;;;;;;8.60;99.90;;;-146.41;100.00;57768.22;5019106;28;1442;-69
2024/02/17 10:24:48;;;;;;;;;;;8.60;99.90;;;-146.41;100.00;57768.22;5018486;28;1665;-69
2024/02/17 10:27:16;;;;;;;;;;;8.60;99.90;;;-146.41;100.00;57768.22;5016697;28;1658;-69
2024/02/17 10:29:43;;;;;;;;;;;8.70;99.90;;;-146.41;100.00;57768.22;5017631;28;1659;-69
2024/02/17 10:32:11;;;;;;;;;;;8.90;99.90;;;-146.41;100.00;57768.22;5021281;28;1709;-68
2024/02/17 10:34:39;;;;;;;;;;;9.10;99.90;;;-146.41;100.00;57768.22;5018607;28;1899;-69
2024/02/17 10:37:06;;;;;;;;;;;9.20;99.90;;;-146.41;100.00;57768.22;5017016;28;1022;-69
2024/02/17 10:39:33;;;;;;;;;;;9.40;99.90;;;-146.41;100.00;57768.22;5011100;28;1734;-69
2024/02/17 10:42:00;;;;;;;;;;;9.40;99.90;;;-146.41;100.00;57768.22;5016728;28;1667;-69
2024/02/17 10:44:28;;;;;;;;;;;9.60;99.90;;;-146.41;100.00;57768.22;4978028;28;1088349;-67
2024/02/17 10:46:56;;;;;;;;;;;9.70;99.90;;;-146.41;100.00;57768.22;5021948;28;1667;-69
2024/02/17 10:49:28;;;;;;;;;;;9.50;99.90;;;-146.41;100.00;57768.22;5018993;28;1573;-69
2024/02/17 10:52:04;;;;;;;;;;;9.60;99.90;;;-146.41;100.00;57768.22;5022187;28;1215;-69
2024/02/17 10:54:36;;;;;;;;;;;9.60;99.90;;;-146.41;100.00;57768.22;5017007;28;1906;-70
2024/02/17 10:57:03;;;;;;;;;;;9.50;99.90;;;-146.41;100.00;57768.22;5019168;28;1766;-69
2024/02/17 10:59:31;;;;;;;;;;;9.70;99.90;;;-146.41;100.00;57768.22;5019978;28;1727;-70
2024/02/17 11:02:02;;;;;;;;;;;9.70;99.90;;;-146.41;100.00;57768.22;5018844;28;1515;-68
2024/02/17 11:04:29;;;;;;;;;;;9.80;99.90;;;-146.41;100.00;57768.22;5019424;28;1460;-69
2024/02/17 11:06:56;;;;;;;;;;;9.80;99.90;;;-146.41;100.00;57768.22;5005817;28;1767;-69
2024/02/17 11:09:23;;;;;;;;;;;9.90;99.90;;;-146.41;100.00;57768.22;5017578;28;1381;-69